sensor_id;sensor_type;location;lat;lon;timestamp;pressure;altitude;pressure_sealevel;temperature;humidity
35577;BME280;21680;52.400;16.920;2023-06-14T00:00:13;100907.96;;;14.24;65.61
35577;BME280;21680;52.400;16.920;2023-06-14T00:02:39;100904.25;;;14.26;65.68
35577;BME280;21680;52.400;16.920;2023-06-14T00:05:05;100910.45;;;14.24;65.88
35577;BME280;21680;52.400;16.920;2023-06-14T00:07:35;100913.25;;;14.19;66.03
35577;BME280;21680;52.400;16.920;2023-06-14T00:10:02;100912.28;;;14.17;66.46
35577;BME280;21680;52.400;16.920;2023-06-14T00:12:28;100911.81;;;14.16;66.67
35577;BME280;21680;52.400;16.920;2023-06-14T00:14:53;100908.63;;;14.15;66.79
35577;BME280;21680;52.400;16.920;2023-06-14T00:17:18;100908.15;;;14.14;67.11
35577;BME280;21680;52.400;16.920;2023-06-14T00:19:44;100903.42;;;14.12;67.52
35577;BME280;21680;52.400;16.920;2023-06-14T00:22:09;100904.23;;;14.10;67.61
35577;BME280;21680;52.400;16.920;2023-06-14T00:24:35;100907.05;;;14.11;67.74
35577;BME280;21680;52.400;16.920;2023-06-14T00:27:00;100910.73;;;14.13;67.81
35577;BME280;21680;52.400;16.920;2023-06-14T00:29:26;100912.75;;;14.15;67.85
35577;BME280;21680;52.400;16.920;2023-06-14T00:31:51;100916.66;;;14.16;67.91
35577;BME280;21680;52.400;16.920;2023-06-14T00:34:16;100911.39;;;14.14;68.15
35577;BME280;21680;52.400;16.920;2023-06-14T00:36:41;100911.03;;;14.14;68.24
35577;BME280;21680;52.400;16.920;2023-06-14T00:39:06;100906.98;;;14.12;68.27
35577;BME280;21680;52.400;16.920;2023-06-14T00:41:32;100908.42;;;14.12;68.38
35577;BME280;21680;52.400;16.920;2023-06-14T00:43:57;100911.20;;;14.14;68.49
35577;BME280;21680;52.400;16.920;2023-06-14T00:46:22;100907.61;;;14.14;68.58
35577;BME280;21680;52.400;16.920;2023-06-14T00:48:48;100906.59;;;14.16;68.49
35577;BME280;21680;52.400;16.920;2023-06-14T00:51:14;100903.41;;;14.15;68.75
35577;BME280;21680;52.400;16.920;2023-06-14T00:53:39;100902.98;;;14.16;68.85
35577;BME280;21680;52.400;16.920;2023-06-14T00:56:06;100904.55;;;14.17;68.63
35577;BME280;21680;52.400;16.920;2023-06-14T00:58:32;100906.38;;;14.13;68.94
35577;BME280;21680;52.400;16.920;2023-06-14T01:00:57;100900.57;;;14.11;69.02
35577;BME280;21680;52.400;16.920;2023-06-14T01:03:23;100898.70;;;14.09;69.08
35577;BME280;21680;52.400;16.920;2023-06-14T01:06:01;100905.79;;;14.08;69.23
35577;BME280;21680;52.400;16.920;2023-06-14T01:08:47;100907.30;;;14.10;69.37
35577;BME280;21680;52.400;16.920;2023-06-14T01:11:28;100906.36;;;14.07;69.50
35577;BME280;21680;52.400;16.920;2023-06-14T01:13:58;100907.13;;;14.06;69.64
35577;BME280;21680;52.400;16.920;2023-06-14T01:16:25;100910.52;;;14.04;69.60
35577;BME280;21680;52.400;16.920;2023-06-14T01:18:52;100906.95;;;14.00;69.78
35577;BME280;21680;52.400;16.920;2023-06-14T01:21:25;100905.23;;;13.97;69.87
35577;BME280;21680;52.400;16.920;2023-06-14T01:23:51;100905.13;;;13.96;69.97
35577;BME280;21680;52.400;16.920;2023-06-14T01:26:22;100898.16;;;13.96;70.14
35577;BME280;21680;52.400;16.920;2023-06-14T01:28:48;100895.77;;;13.97;70.31
35577;BME280;21680;52.400;16.920;2023-06-14T01:31:18;100893.94;;;13.97;70.15
35577;BME280;21680;52.400;16.920;2023-06-14T01:33:45;100887.04;;;13.92;70.09
35577;BME280;21680;52.400;16.920;2023-06-14T01:36:11;100880.67;;;13.87;70.26
35577;BME280;21680;52.400;16.920;2023-06-14T01:38:37;100880.50;;;13.83;70.27
35577;BME280;21680;52.400;16.920;2023-06-14T01:41:03;100877.52;;;13.78;70.47
35577;BME280;21680;52.400;16.920;2023-06-14T01:43:30;100883.30;;;13.78;70.66
35577;BME280;21680;52.400;16.920;2023-06-14T01:45:56;100881.84;;;13.78;70.67
35577;BME280;21680;52.400;16.920;2023-06-14T01:48:23;100877.71;;;13.78;70.89
35577;BME280;21680;52.400;16.920;2023-06-14T01:50:49;100874.29;;;13.79;70.84
35577;BME280;21680;52.400;16.920;2023-06-14T01:53:15;100874.14;;;13.75;70.96
35577;BME280;21680;52.400;16.920;2023-06-14T01:55:41;100869.41;;;13.73;70.98
35577;BME280;21680;52.400;16.920;2023-06-14T01:58:08;100868.63;;;13.67;71.19
35577;BME280;21680;52.400;16.920;2023-06-14T02:00:34;100862.08;;;13.65;71.41
35577;BME280;21680;52.400;16.920;2023-06-14T02:03:00;100861.63;;;13.63;71.55
35577;BME280;21680;52.400;16.920;2023-06-14T02:05:26;100859.84;;;13.63;71.61
35577;BME280;21680;52.400;16.920;2023-06-14T02:07:52;100854.11;;;13.63;71.74
35577;BME280;21680;52.400;16.920;2023-06-14T02:10:18;100856.44;;;13.63;71.64
35577;BME280;21680;52.400;16.920;2023-06-14T02:12:44;100862.23;;;13.59;71.88
35577;BME280;21680;52.400;16.920;2023-06-14T02:15:10;100861.89;;;13.55;72.20
35577;BME280;21680;52.400;16.920;2023-06-14T02:17:42;100862.93;;;13.55;72.29
35577;BME280;21680;52.400;16.920;2023-06-14T02:20:08;100864.83;;;13.57;72.59
35577;BME280;21680;52.400;16.920;2023-06-14T02:22:34;100869.10;;;13.58;72.48
35577;BME280;21680;52.400;16.920;2023-06-14T02:25:00;100869.05;;;13.55;72.64
35577;BME280;21680;52.400;16.920;2023-06-14T02:27:25;100869.97;;;13.55;72.82
35577;BME280;21680;52.400;16.920;2023-06-14T02:29:50;100870.73;;;13.54;72.78
35577;BME280;21680;52.400;16.920;2023-06-14T02:32:15;100869.52;;;13.53;72.86
35577;BME280;21680;52.400;16.920;2023-06-14T02:34:41;100869.84;;;13.51;72.98
35577;BME280;21680;52.400;16.920;2023-06-14T02:37:08;100875.64;;;13.50;73.09
35577;BME280;21680;52.400;16.920;2023-06-14T02:39:33;100870.86;;;13.48;73.15
35577;BME280;21680;52.400;16.920;2023-06-14T02:41:59;100869.27;;;13.48;73.14
35577;BME280;21680;52.400;16.920;2023-06-14T02:44:25;100873.02;;;13.48;73.26
35577;BME280;21680;52.400;16.920;2023-06-14T02:46:53;100879.52;;;13.47;73.27
35577;BME280;21680;52.400;16.920;2023-06-14T02:49:19;100882.02;;;13.48;73.35
35577;BME280;21680;52.400;16.920;2023-06-14T02:51:44;100882.24;;;13.47;73.37
35577;BME280;21680;52.400;16.920;2023-06-14T02:54:10;100884.27;;;13.43;73.56
35577;BME280;21680;52.400;16.920;2023-06-14T02:56:36;100885.04;;;13.42;73.76
35577;BME280;21680;52.400;16.920;2023-06-14T02:59:01;100882.12;;;13.42;73.64
35577;BME280;21680;52.400;16.920;2023-06-14T03:01:27;100882.41;;;13.40;73.66
35577;BME280;21680;52.400;16.920;2023-06-14T03:03:59;100881.17;;;13.36;73.75
35577;BME280;21680;52.400;16.920;2023-06-14T03:06:24;100879.91;;;13.33;74.06
35577;BME280;21680;52.400;16.920;2023-06-14T03:08:50;100880.73;;;13.34;74.08
35577;BME280;21680;52.400;16.920;2023-06-14T03:11:16;100877.50;;;13.34;74.21
35577;BME280;21680;52.400;16.920;2023-06-14T03:13:45;100875.91;;;13.34;74.19
35577;BME280;21680;52.400;16.920;2023-06-14T03:16:12;100876.86;;;13.33;74.28
35577;BME280;21680;52.400;16.920;2023-06-14T03:18:37;100877.98;;;13.32;74.37
35577;BME280;21680;52.400;16.920;2023-06-14T03:21:03;100879.67;;;13.34;74.40
35577;BME280;21680;52.400;16.920;2023-06-14T03:23:28;100875.46;;;13.36;74.55
35577;BME280;21680;52.400;16.920;2023-06-14T03:25:53;100876.58;;;13.35;74.59
35577;BME280;21680;52.400;16.920;2023-06-14T03:28:19;100875.27;;;13.36;74.50
35577;BME280;21680;52.400;16.920;2023-06-14T03:30:45;100877.80;;;13.36;74.63
35577;BME280;21680;52.400;16.920;2023-06-14T03:33:11;100879.58;;;13.36;74.87
35577;BME280;21680;52.400;16.920;2023-06-14T03:35:36;100884.02;;;13.40;74.80
35577;BME280;21680;52.400;16.920;2023-06-14T03:38:01;100884.77;;;13.43;74.83
35577;BME280;21680;52.400;16.920;2023-06-14T03:40:27;100887.02;;;13.45;74.84
35577;BME280;21680;52.400;16.920;2023-06-14T03:42:55;100893.89;;;13.47;74.87
35577;BME280;21680;52.400;16.920;2023-06-14T03:45:21;100897.41;;;13.49;74.78
35577;BME280;21680;52.400;16.920;2023-06-14T03:47:47;100893.48;;;13.52;74.91
35577;BME280;21680;52.400;16.920;2023-06-14T03:50:12;100895.21;;;13.53;74.95
35577;BME280;21680;52.400;16.920;2023-06-14T03:52:38;100894.20;;;13.52;74.98
35577;BME280;21680;52.400;16.920;2023-06-14T03:55:04;100896.66;;;13.53;75.08
35577;BME280;21680;52.400;16.920;2023-06-14T03:57:29;100898.61;;;13.53;75.20
35577;BME280;21680;52.400;16.920;2023-06-14T03:59:55;100897.38;;;13.53;75.09
35577;BME280;21680;52.400;16.920;2023-06-14T04:02:20;100897.98;;;13.51;75.22
35577;BME280;21680;52.400;16.920;2023-06-14T04:04:46;100903.63;;;13.50;75.31
35577;BME280;21680;52.400;16.920;2023-06-14T04:07:12;100902.00;;;13.50;75.36
35577;BME280;21680;52.400;16.920;2023-06-14T04:09:38;100906.42;;;13.51;75.43
35577;BME280;21680;52.400;16.920;2023-06-14T04:12:05;100909.47;;;13.55;75.28
35577;BME280;21680;52.400;16.920;2023-06-14T04:14:30;100905.80;;;13.56;75.39
35577;BME280;21680;52.400;16.920;2023-06-14T04:16:58;100909.92;;;13.60;75.33
35577;BME280;21680;52.400;16.920;2023-06-14T04:19:24;100907.79;;;13.60;75.26
35577;BME280;21680;52.400;16.920;2023-06-14T04:21:49;100906.02;;;13.56;75.46
35577;BME280;21680;52.400;16.920;2023-06-14T04:24:15;100908.42;;;13.54;75.57
35577;BME280;21680;52.400;16.920;2023-06-14T04:26:44;100911.13;;;13.54;75.60
35577;BME280;21680;52.400;16.920;2023-06-14T04:29:14;100909.33;;;13.54;75.67
35577;BME280;21680;52.400;16.920;2023-06-14T04:31:41;100912.70;;;13.55;75.64
35577;BME280;21680;52.400;16.920;2023-06-14T04:34:07;100911.27;;;13.58;75.77
35577;BME280;21680;52.400;16.920;2023-06-14T04:36:33;100917.63;;;13.64;75.72
35577;BME280;21680;52.400;16.920;2023-06-14T04:39:06;100914.25;;;13.67;75.75
35577;BME280;21680;52.400;16.920;2023-06-14T04:41:32;100911.36;;;13.67;75.83
35577;BME280;21680;52.400;16.920;2023-06-14T04:43:58;100913.31;;;13.71;75.86
35577;BME280;21680;52.400;16.920;2023-06-14T04:46:27;100916.72;;;13.71;75.71
35577;BME280;21680;52.400;16.920;2023-06-14T04:48:53;100910.65;;;13.71;75.80
35577;BME280;21680;52.400;16.920;2023-06-14T04:51:19;100912.94;;;13.71;75.86
35577;BME280;21680;52.400;16.920;2023-06-14T04:53:46;100914.95;;;13.71;75.88
35577;BME280;21680;52.400;16.920;2023-06-14T04:56:11;100916.48;;;13.72;76.00
35577;BME280;21680;52.400;16.920;2023-06-14T04:58:36;100918.98;;;13.76;76.01
35577;BME280;21680;52.400;16.920;2023-06-14T05:01:03;100924.23;;;13.78;76.03
35577;BME280;21680;52.400;16.920;2023-06-14T05:03:29;100928.42;;;13.80;76.11
35577;BME280;21680;52.400;16.920;2023-06-14T05:05:55;100928.60;;;13.81;76.12
35577;BME280;21680;52.400;16.920;2023-06-14T05:08:21;100927.92;;;13.80;76.29
35577;BME280;21680;52.400;16.920;2023-06-14T05:10:50;100923.04;;;13.77;76.42
35577;BME280;21680;52.400;16.920;2023-06-14T05:13:16;100922.45;;;13.78;76.54
35577;BME280;21680;52.400;16.920;2023-06-14T05:15:42;100920.84;;;13.81;76.54
35577;BME280;21680;52.400;16.920;2023-06-14T05:18:07;100922.05;;;13.83;76.45
35577;BME280;21680;52.400;16.920;2023-06-14T05:20:34;100922.56;;;13.83;76.54
35577;BME280;21680;52.400;16.920;2023-06-14T05:23:02;100924.77;;;13.85;76.56
35577;BME280;21680;52.400;16.920;2023-06-14T05:25:28;100931.10;;;13.91;76.60
35577;BME280;21680;52.400;16.920;2023-06-14T05:27:53;100930.90;;;13.95;76.54
35577;BME280;21680;52.400;16.920;2023-06-14T05:30:18;100933.47;;;14.01;76.57
35577;BME280;21680;52.400;16.920;2023-06-14T05:32:43;100935.48;;;14.07;76.54
35577;BME280;21680;52.400;16.920;2023-06-14T05:35:10;100937.81;;;14.10;76.52
35577;BME280;21680;52.400;16.920;2023-06-14T05:37:35;100934.17;;;14.15;76.50
35577;BME280;21680;52.400;16.920;2023-06-14T05:40:02;100938.30;;;14.18;76.57
35577;BME280;21680;52.400;16.920;2023-06-14T05:42:30;100942.49;;;14.20;76.40
35577;BME280;21680;52.400;16.920;2023-06-14T05:44:55;100944.11;;;14.20;76.45
35577;BME280;21680;52.400;16.920;2023-06-14T05:47:20;100941.51;;;14.22;76.42
35577;BME280;21680;52.400;16.920;2023-06-14T05:49:46;100943.68;;;14.28;76.52
35577;BME280;21680;52.400;16.920;2023-06-14T05:52:11;100948.94;;;14.27;76.32
35577;BME280;21680;52.400;16.920;2023-06-14T05:54:38;100945.48;;;14.28;76.38
35577;BME280;21680;52.400;16.920;2023-06-14T05:57:03;100948.02;;;14.31;76.45
35577;BME280;21680;52.400;16.920;2023-06-14T05:59:30;100947.29;;;14.35;76.42
35577;BME280;21680;52.400;16.920;2023-06-14T06:01:55;100953.75;;;14.42;76.46
35577;BME280;21680;52.400;16.920;2023-06-14T06:04:21;100955.42;;;14.47;76.29
35577;BME280;21680;52.400;16.920;2023-06-14T06:06:46;100954.59;;;14.46;76.21
35577;BME280;21680;52.400;16.920;2023-06-14T06:09:12;100959.23;;;14.47;76.16
35577;BME280;21680;52.400;16.920;2023-06-14T06:11:39;100964.39;;;14.48;76.30
35577;BME280;21680;52.400;16.920;2023-06-14T06:14:05;100962.80;;;14.51;76.22
35577;BME280;21680;52.400;16.920;2023-06-14T06:16:30;100960.90;;;14.46;76.35
35577;BME280;21680;52.400;16.920;2023-06-14T06:18:56;100957.45;;;14.43;76.45
35577;BME280;21680;52.400;16.920;2023-06-14T06:21:21;100963.80;;;14.42;76.31
35577;BME280;21680;52.400;16.920;2023-06-14T06:23:46;100963.33;;;14.34;76.37
35577;BME280;21680;52.400;16.920;2023-06-14T06:26:12;100964.05;;;14.34;76.44
35577;BME280;21680;52.400;16.920;2023-06-14T06:28:37;100965.95;;;14.39;76.56
35577;BME280;21680;52.400;16.920;2023-06-14T06:31:02;100971.30;;;14.39;76.49
35577;BME280;21680;52.400;16.920;2023-06-14T06:33:28;100968.15;;;14.41;76.62
35577;BME280;21680;52.400;16.920;2023-06-14T06:35:53;100972.47;;;14.42;76.57
35577;BME280;21680;52.400;16.920;2023-06-14T06:38:18;100973.73;;;14.41;76.73
35577;BME280;21680;52.400;16.920;2023-06-14T06:40:44;100974.91;;;14.46;76.76
35577;BME280;21680;52.400;16.920;2023-06-14T06:43:09;100981.13;;;14.58;76.82
35577;BME280;21680;52.400;16.920;2023-06-14T06:45:38;100980.95;;;14.71;76.77
35577;BME280;21680;52.400;16.920;2023-06-14T06:48:04;100972.47;;;14.75;76.64
35577;BME280;21680;52.400;16.920;2023-06-14T06:50:29;100974.21;;;14.85;76.81
35577;BME280;21680;52.400;16.920;2023-06-14T06:52:55;100975.75;;;14.92;76.63
35577;BME280;21680;52.400;16.920;2023-06-14T06:55:21;100980.26;;;14.99;76.56
35577;BME280;21680;52.400;16.920;2023-06-14T06:57:46;100980.23;;;15.06;76.61
35577;BME280;21680;52.400;16.920;2023-06-14T07:00:12;100980.92;;;15.10;76.39
35577;BME280;21680;52.400;16.920;2023-06-14T07:02:37;100979.14;;;15.12;76.41
35577;BME280;21680;52.400;16.920;2023-06-14T07:05:03;100978.41;;;15.15;76.25
35577;BME280;21680;52.400;16.920;2023-06-14T07:07:29;100983.06;;;15.19;76.17
35577;BME280;21680;52.400;16.920;2023-06-14T07:09:54;100990.13;;;15.21;76.05
35577;BME280;21680;52.400;16.920;2023-06-14T07:12:23;100998.38;;;15.25;76.08
35577;BME280;21680;52.400;16.920;2023-06-14T07:14:48;100998.73;;;15.29;75.98
35577;BME280;21680;52.400;16.920;2023-06-14T07:17:13;100996.71;;;15.32;75.81
35577;BME280;21680;52.400;16.920;2023-06-14T07:19:38;100997.58;;;15.27;75.52
35577;BME280;21680;52.400;16.920;2023-06-14T07:22:03;100991.77;;;15.21;75.57
35577;BME280;21680;52.400;16.920;2023-06-14T07:24:29;100991.13;;;15.23;75.54
35577;BME280;21680;52.400;16.920;2023-06-14T07:26:54;100992.86;;;15.24;75.45
35577;BME280;21680;52.400;16.920;2023-06-14T07:29:20;100993.15;;;15.16;75.16
35577;BME280;21680;52.400;16.920;2023-06-14T07:31:46;100993.62;;;15.08;75.30
35577;BME280;21680;52.400;16.920;2023-06-14T07:34:12;100991.04;;;15.06;75.35
35577;BME280;21680;52.400;16.920;2023-06-14T07:36:37;100991.04;;;15.09;75.54
35577;BME280;21680;52.400;16.920;2023-06-14T07:39:03;100991.38;;;15.16;75.49
35577;BME280;21680;52.400;16.920;2023-06-14T07:41:29;100991.11;;;15.17;75.36
35577;BME280;21680;52.400;16.920;2023-06-14T07:43:54;100996.20;;;15.19;75.22
35577;BME280;21680;52.400;16.920;2023-06-14T07:46:20;100997.66;;;15.19;75.22
35577;BME280;21680;52.400;16.920;2023-06-14T07:48:45;101002.95;;;15.24;75.45
35577;BME280;21680;52.400;16.920;2023-06-14T07:51:10;101002.12;;;15.39;75.58
35577;BME280;21680;52.400;16.920;2023-06-14T07:53:36;101002.27;;;15.51;75.48
35577;BME280;21680;52.400;16.920;2023-06-14T07:56:01;101005.13;;;15.55;75.27
35577;BME280;21680;52.400;16.920;2023-06-14T07:58:27;101000.48;;;15.54;75.17
35577;BME280;21680;52.400;16.920;2023-06-14T08:00:53;100992.96;;;15.53;75.16
35577;BME280;21680;52.400;16.920;2023-06-14T08:03:18;100989.16;;;15.48;75.01
35577;BME280;21680;52.400;16.920;2023-06-14T08:05:44;100995.13;;;15.41;74.94
35577;BME280;21680;52.400;16.920;2023-06-14T08:08:10;100992.72;;;15.36;74.94
35577;BME280;21680;52.400;16.920;2023-06-14T08:10:35;100988.96;;;15.33;74.91
35577;BME280;21680;52.400;16.920;2023-06-14T08:13:00;100990.63;;;15.35;74.87
35577;BME280;21680;52.400;16.920;2023-06-14T08:15:25;100983.23;;;15.35;74.85
35577;BME280;21680;52.400;16.920;2023-06-14T08:17:51;100978.31;;;15.39;74.80
35577;BME280;21680;52.400;16.920;2023-06-14T08:20:16;100989.73;;;15.47;74.74
35577;BME280;21680;52.400;16.920;2023-06-14T08:22:42;100994.95;;;15.53;74.80
35577;BME280;21680;52.400;16.920;2023-06-14T08:25:08;100990.23;;;15.63;74.83
35577;BME280;21680;52.400;16.920;2023-06-14T08:27:34;100989.59;;;15.74;74.64
35577;BME280;21680;52.400;16.920;2023-06-14T08:30:00;100987.73;;;15.78;74.53
35577;BME280;21680;52.400;16.920;2023-06-14T08:32:25;100988.46;;;15.81;74.37
35577;BME280;21680;52.400;16.920;2023-06-14T08:34:50;100989.43;;;15.82;74.45
35577;BME280;21680;52.400;16.920;2023-06-14T08:37:16;100992.22;;;15.84;74.30
35577;BME280;21680;52.400;16.920;2023-06-14T08:39:41;100994.70;;;15.85;74.20
35577;BME280;21680;52.400;16.920;2023-06-14T08:42:07;100994.16;;;15.97;74.38
35577;BME280;21680;52.400;16.920;2023-06-14T08:44:34;100989.88;;;16.17;74.18
35577;BME280;21680;52.400;16.920;2023-06-14T08:46:59;100992.57;;;16.34;74.07
35577;BME280;21680;52.400;16.920;2023-06-14T08:49:26;100995.46;;;16.54;73.97
35577;BME280;21680;52.400;16.920;2023-06-14T08:51:58;100997.13;;;16.54;73.34
35577;BME280;21680;52.400;16.920;2023-06-14T08:54:28;100995.08;;;16.58;73.32
35577;BME280;21680;52.400;16.920;2023-06-14T08:56:56;100989.13;;;16.73;73.30
35577;BME280;21680;52.400;16.920;2023-06-14T08:59:25;100990.41;;;16.86;73.09
35577;BME280;21680;52.400;16.920;2023-06-14T09:01:51;100991.67;;;16.98;72.81
35577;BME280;21680;52.400;16.920;2023-06-14T09:04:18;100990.02;;;17.15;72.92
35577;BME280;21680;52.400;16.920;2023-06-14T09:06:45;100990.66;;;17.33;72.56
35577;BME280;21680;52.400;16.920;2023-06-14T09:09:10;100989.87;;;17.39;72.23
35577;BME280;21680;52.400;16.920;2023-06-14T09:11:36;100989.45;;;17.48;71.92
35577;BME280;21680;52.400;16.920;2023-06-14T09:14:01;100987.77;;;17.46;71.38
35577;BME280;21680;52.400;16.920;2023-06-14T09:16:27;100994.09;;;17.43;71.05
35577;BME280;21680;52.400;16.920;2023-06-14T09:18:54;100990.20;;;17.53;70.96
35577;BME280;21680;52.400;16.920;2023-06-14T09:21:19;100989.45;;;17.72;70.89
35577;BME280;21680;52.400;16.920;2023-06-14T09:23:47;100991.50;;;17.85;70.25
35577;BME280;21680;52.400;16.920;2023-06-14T09:26:19;100988.52;;;17.92;69.56
35577;BME280;21680;52.400;16.920;2023-06-14T09:28:49;100989.23;;;17.99;69.47
35577;BME280;21680;52.400;16.920;2023-06-14T09:31:19;100987.73;;;18.08;68.92
35577;BME280;21680;52.400;16.920;2023-06-14T09:33:49;100984.09;;;18.16;68.83
35577;BME280;21680;52.400;16.920;2023-06-14T09:36:26;100977.04;;;18.23;68.41
35577;BME280;21680;52.400;16.920;2023-06-14T09:38:56;100975.25;;;18.21;67.79
35577;BME280;21680;52.400;16.920;2023-06-14T09:41:36;100976.98;;;18.20;67.42
35577;BME280;21680;52.400;16.920;2023-06-14T09:44:03;100973.36;;;18.27;67.28
35577;BME280;21680;52.400;16.920;2023-06-14T09:46:30;100974.23;;;18.32;66.73
35577;BME280;21680;52.400;16.920;2023-06-14T09:48:59;100972.84;;;18.37;66.43
35577;BME280;21680;52.400;16.920;2023-06-14T09:51:25;100970.58;;;18.43;66.23
35577;BME280;21680;52.400;16.920;2023-06-14T09:53:52;100970.56;;;18.46;65.86
35577;BME280;21680;52.400;16.920;2023-06-14T09:56:38;100970.61;;;18.53;65.55
35577;BME280;21680;52.400;16.920;2023-06-14T09:59:09;100966.34;;;18.54;65.14
35577;BME280;21680;52.400;16.920;2023-06-14T10:01:35;100961.28;;;18.54;63.97
35577;BME280;21680;52.400;16.920;2023-06-14T10:04:06;100954.38;;;18.52;63.49
35577;BME280;21680;52.400;16.920;2023-06-14T10:06:36;100951.99;;;18.55;63.75
35577;BME280;21680;52.400;16.920;2023-06-14T10:09:04;100945.30;;;18.78;63.64
35577;BME280;21680;52.400;16.920;2023-06-14T10:11:31;100947.83;;;18.95;63.04
35577;BME280;21680;52.400;16.920;2023-06-14T10:13:57;100939.31;;;18.90;62.19
35577;BME280;21680;52.400;16.920;2023-06-14T10:16:42;100937.67;;;18.86;61.99
35577;BME280;21680;52.400;16.920;2023-06-14T10:19:22;100940.23;;;18.95;62.14
35577;BME280;21680;52.400;16.920;2023-06-14T10:21:58;100936.44;;;19.14;62.08
35577;BME280;21680;52.400;16.920;2023-06-14T10:24:30;100934.48;;;19.23;61.92
35577;BME280;21680;52.400;16.920;2023-06-14T10:26:58;100939.11;;;19.34;61.67
35577;BME280;21680;52.400;16.920;2023-06-14T10:29:25;100939.33;;;19.41;61.33
35577;BME280;21680;52.400;16.920;2023-06-14T10:31:56;100938.20;;;19.39;60.86
35577;BME280;21680;52.400;16.920;2023-06-14T10:34:27;100933.64;;;19.30;60.69
35577;BME280;21680;52.400;16.920;2023-06-14T10:37:05;100931.11;;;19.42;60.75
35577;BME280;21680;52.400;16.920;2023-06-14T10:39:32;100923.66;;;19.61;60.89
35577;BME280;21680;52.400;16.920;2023-06-14T10:42:01;100920.78;;;19.84;60.82
35577;BME280;21680;52.400;16.920;2023-06-14T10:46:56;100913.67;;;20.51;60.61
35577;BME280;21680;52.400;16.920;2023-06-14T10:49:43;100914.44;;;20.66;59.35
35577;BME280;21680;52.400;16.920;2023-06-14T10:52:14;100912.16;;;20.54;58.79
35577;BME280;21680;52.400;16.920;2023-06-14T10:57:32;100912.11;;;20.59;58.31
35577;BME280;21680;52.400;16.920;2023-06-14T10:59:59;100908.95;;;20.63;57.86
35577;BME280;21680;52.400;16.920;2023-06-14T11:02:42;100908.52;;;20.63;57.38
35577;BME280;21680;52.400;16.920;2023-06-14T11:05:14;100913.16;;;20.69;57.07
35577;BME280;21680;52.400;16.920;2023-06-14T11:07:52;100913.33;;;20.73;56.90
35577;BME280;21680;52.400;16.920;2023-06-14T11:10:36;100909.83;;;20.78;56.47
35577;BME280;21680;52.400;16.920;2023-06-14T11:13:07;100907.65;;;20.79;56.21
35577;BME280;21680;52.400;16.920;2023-06-14T11:15:34;100907.78;;;20.87;56.28
35577;BME280;21680;52.400;16.920;2023-06-14T11:18:04;100904.21;;;20.97;55.62
35577;BME280;21680;52.400;16.920;2023-06-14T11:20:32;100906.30;;;20.94;55.40
35577;BME280;21680;52.400;16.920;2023-06-14T11:22:58;100908.52;;;20.96;54.50
35577;BME280;21680;52.400;16.920;2023-06-14T11:25:24;100903.68;;;20.78;53.98
35577;BME280;21680;52.400;16.920;2023-06-14T11:27:50;100904.27;;;20.82;54.47
35577;BME280;21680;52.400;16.920;2023-06-14T11:30:15;100900.29;;;21.01;54.31
35577;BME280;21680;52.400;16.920;2023-06-14T11:32:41;100901.37;;;20.99;53.91
35577;BME280;21680;52.400;16.920;2023-06-14T11:35:06;100897.61;;;21.02;53.79
35577;BME280;21680;52.400;16.920;2023-06-14T11:37:32;100895.85;;;21.19;54.10
35577;BME280;21680;52.400;16.920;2023-06-14T11:40:03;100896.36;;;21.41;53.94
35577;BME280;21680;52.400;16.920;2023-06-14T11:42:33;100892.95;;;21.58;53.75
35577;BME280;21680;52.400;16.920;2023-06-14T11:44:58;100889.13;;;21.73;53.60
35577;BME280;21680;52.400;16.920;2023-06-14T11:47:24;100888.00;;;21.71;52.87
35577;BME280;21680;52.400;16.920;2023-06-14T11:49:50;100890.41;;;21.56;52.69
35577;BME280;21680;52.400;16.920;2023-06-14T11:52:16;100889.92;;;21.47;52.56
35577;BME280;21680;52.400;16.920;2023-06-14T11:54:41;100885.55;;;21.36;52.48
35577;BME280;21680;52.400;16.920;2023-06-14T11:57:07;100880.11;;;21.28;52.26
35577;BME280;21680;52.400;16.920;2023-06-14T11:59:41;100877.90;;;21.19;52.30
35577;BME280;21680;52.400;16.920;2023-06-14T12:02:09;100874.26;;;21.19;52.23
35577;BME280;21680;52.400;16.920;2023-06-14T12:04:35;100873.92;;;21.08;51.51
35577;BME280;21680;52.400;16.920;2023-06-14T12:07:11;100873.46;;;20.94;51.42
35577;BME280;21680;52.400;16.920;2023-06-14T12:10:07;100874.23;;;20.78;51.05
35577;BME280;21680;52.400;16.920;2023-06-14T12:12:39;100868.33;;;20.71;51.20
35577;BME280;21680;52.400;16.920;2023-06-14T12:15:06;100865.66;;;20.68;51.03
35577;BME280;21680;52.400;16.920;2023-06-14T12:17:34;100862.58;;;20.74;51.13
35577;BME280;21680;52.400;16.920;2023-06-14T12:20:05;100866.27;;;20.86;51.08
35577;BME280;21680;52.400;16.920;2023-06-14T12:22:33;100862.91;;;20.98;51.20
35577;BME280;21680;52.400;16.920;2023-06-14T12:24:59;100862.52;;;21.07;51.13
35577;BME280;21680;52.400;16.920;2023-06-14T12:27:25;100858.17;;;21.11;51.08
35577;BME280;21680;52.400;16.920;2023-06-14T12:30:01;100860.23;;;21.17;51.20
35577;BME280;21680;52.400;16.920;2023-06-14T12:32:27;100858.39;;;21.22;51.19
35577;BME280;21680;52.400;16.920;2023-06-14T12:34:53;100857.36;;;21.25;51.11
35577;BME280;21680;52.400;16.920;2023-06-14T12:37:18;100859.37;;;21.32;51.01
35577;BME280;21680;52.400;16.920;2023-06-14T12:39:43;100858.95;;;21.39;51.00
35577;BME280;21680;52.400;16.920;2023-06-14T12:42:09;100857.16;;;21.45;50.90
35577;BME280;21680;52.400;16.920;2023-06-14T12:44:34;100858.28;;;21.53;50.87